Latest Coastal Weather Observations for Charles Point

IDD60701

Issued at 7:11 am CST Friday 23 February 2024 (issued every 10 minutes, with the page automatically refreshed every 10 minutes)

About coastal observations | Map of coastal stations | Coastal observations for NT | Marine services | Other Formats
Station Details ID: 014031 Name: CHARLES POINT Lat: -12.39 Lon: 130.63 Height: 14.0 m
Data from the previous 72 hours. | See also: Recent months for locations in Northern Territory
Date/Time
CST
Wind Sea
Height
m
Swell Vis
km
Cloud Weather Temp
°C
Press
MSL
hPa
Rain since
9am
mm
Dir  Spd
kts
Gust
kts
Height
m
Period
s
Dir
23/07:00am WSW 2 6 - - - - - - - 28.3 1010.0 0.0
23/06:30am WSW 2 4 - - - - - - - 28.2 1010.0 0.0
23/06:00am WSW 2 3 - - - - - - - 28.2 1009.8 0.0
23/05:30am WSW 2 4 - - - - - - - 28.2 1009.5 0.0
23/05:00am SW 2 5 - - - - - - - 28.3 1009.5 0.0
23/04:30am WSW 2 5 - - - - - - - 28.3 1009.6 0.0
23/04:00am WSW 2 5 - - - - - - - 28.2 1009.6 0.0
23/03:30am WSW 2 4 - - - - - - - 28.1 1009.7 0.0
23/03:00am WSW 2 4 - - - - - - - 27.8 1009.7 0.0
23/02:30am SW 2 3 - - - - - - - 28.0 1010.0 0.0
23/02:00am SW 1 3 - - - - - - - 28.3 1010.4 0.0
23/01:30am WSW 1 3 - - - - - - - 28.6 1010.8 0.0
23/01:00am WSW 1 3 - - - - - - - 28.7 1010.9 0.0
23/12:30am WSW 2 4 - - - - - - - 28.8 1011.0 0.0
23/12:00am WSW 2 5 - - - - - - - 28.8 1011.1 0.0
 
Date/Time
CST
Wind Sea
Height
m
Swell Vis
km
Cloud Weather Temp
°C
Press
MSL
hPa
Rain since
9am
mm
Dir  Spd
kts
Gust
kts
Height
m
Period
s
Dir
22/11:30pm WSW 3 6 - - - - - - - 28.8 1011.2 0.0
22/11:00pm WSW 1 3 - - - - - - - 28.9 1011.4 0.0
22/10:30pm W 2 5 - - - - - - - 29.0 1011.4 0.0
22/10:00pm W 3 5 - - - - - - - 29.1 1011.2 0.0
22/09:30pm W 3 7 - - - - - - - 29.3 1010.9 0.0
22/09:00pm WSW 1 4 - - - - - - - 29.1 1010.8 0.0
22/08:30pm W 3 7 - - - - - - - 29.3 1010.2 0.0
22/08:00pm WSW 2 6 - - - - - - - 29.2 1009.9 0.0
22/07:30pm WSW 3 5 - - - - - - - 29.4 1009.7 0.0
22/07:00pm W 3 7 - - - - - - - 29.9 1009.5 0.0
22/06:30pm W 5 9 - - - - - - - 30.4 1009.0 0.0
22/06:00pm W 4 7 - - - - - - - 31.0 1008.6 0.0
22/05:30pm W 5 9 - - - - - - - 30.9 1008.6 0.0
22/05:00pm W 6 9 - - - - - - - 31.3 1008.7 0.0
22/04:30pm W 3 8 - - - - - - - 30.7 1009.0 0.0
22/04:00pm W 5 9 - - - - - - - 30.4 1008.7 0.0
22/03:30pm WNW 7 11 - - - - - - - 30.9 1008.8 0.0
22/03:00pm WSW 3 7 - - - - - - - 30.9 1009.0 0.0
22/02:30pm WNW 7 9 - - - - - - - 30.8 1009.4 0.0
22/02:00pm NW 8 11 - - - - - - - 31.5 1009.5 0.0
22/01:30pm WNW 7 11 - - - - - - - 31.5 1010.0 0.0
22/01:00pm NW 8 11 - - - - - - - 31.1 1010.4 0.0
22/12:30pm NW 6 10 - - - - - - - 31.0 1010.7 0.0
22/12:00pm NW 6 8 - - - - - - - 31.3 1011.0 0.0
22/11:30am NW 5 9 - - - - - - - 30.7 1011.3 0.0
22/11:00am NW 6 8 - - - - - - - 30.4 1011.7 0.0
22/10:30am NNW 5 7 - - - - - - - 30.6 1011.9 0.0
22/10:00am NNW 5 7 - - - - - - - 30.2 1011.8 0.0
22/09:30am NNW 5 8 - - - - - - - 30.1 1011.7 0.0
22/09:00am NW 5 6 - - - - - - - 29.9 1011.7 0.2
22/08:30am NW 4 6 - - - - - - - 29.1 1011.5 0.2
22/08:00am NW 5 7 - - - - - - - 29.3 1011.3 0.2
22/07:30am NNW 4 7 - - - - - - - 28.9 1011.1 0.2
22/07:00am NW 4 6 - - - - - - - 28.8 1011.0 0.2
22/06:30am NNW 6 9 - - - - - - - 28.8 1010.6 0.2
22/06:00am NNW 6 8 - - - - - - - 28.8 1010.3 0.2
22/05:30am NNW 7 10 - - - - - - - 28.9 1010.0 0.2
22/05:00am NNW 5 7 - - - - - - - 28.9 1009.9 0.2
22/04:30am NW 5 7 - - - - - - - 28.9 1009.7 0.2
22/04:00am NW 4 6 - - - - - - - 28.9 1009.7 0.2
22/03:30am NNW 5 7 - - - - - - - 29.0 1009.7 0.2
22/03:00am NW 6 9 - - - - - - - 29.0 1009.8 0.2
22/02:30am NW 6 10 - - - - - - - 29.1 1009.9 0.2
22/02:00am NNW 8 10 - - - - - - - 29.0 1010.1 0.2
22/01:30am NW 7 11 - - - - - - - 29.1 1010.3 0.2
22/01:00am NNW 8 11 - - - - - - - 29.1 1010.5 0.2
22/12:30am NNW 8 11 - - - - - - - 29.1 1010.5 0.2
22/12:00am NW 7 10 - - - - - - - 29.4 1010.9 0.2
 
Date/Time
CST
Wind Sea
Height
m
Swell Vis
km
Cloud Weather Temp
°C
Press
MSL
hPa
Rain since
9am
mm
Dir  Spd
kts
Gust
kts
Height
m
Period
s
Dir
21/11:30pm NNW 9 11 - - - - - - - 29.4 1011.0 0.2
21/11:00pm NW 8 11 - - - - - - - 29.7 1010.7 0.2
21/10:30pm NNE 5 8 - - - - - - - 29.9 1010.4 0.2
21/10:00pm NE 4 5 - - - - - - - 29.6 1010.2 0.2
21/09:30pm CALM 0 2 - - - - - - - 28.6 1009.8 0.2
21/09:00pm CALM 0 0 - - - - - - - 28.3 1009.4 0.2
21/08:30pm CALM 0 0 - - - - - - - 28.4 1008.9 0.2
21/08:00pm CALM 0 2 - - - - - - - 28.8 1008.1 0.2
21/07:30pm CALM 0 0 - - - - - - - 29.3 1007.8 0.2
21/07:00pm WSW 1 2 - - - - - - - 29.6 1007.8 0.2
21/06:30pm NW 2 3 - - - - - - - 30.2 1007.5 0.2
21/06:00pm NW 1 2 - - - - - - - 30.3 1007.3 0.2
21/05:30pm N 3 4 - - - - - - - 30.4 1007.1 0.2
21/05:00pm NNW 3 4 - - - - - - - 30.7 1006.7 0.2
21/04:30pm NNW 4 5 - - - - - - - 31.0 1006.6 0.2
21/04:00pm NNW 4 7 - - - - - - - 31.4 1006.8 0.2
21/03:30pm NNW 4 5 - - - - - - - 31.5 1007.0 0.2
21/03:00pm NNW 5 7 - - - - - - - 31.2 1007.3 0.2
21/02:30pm NNW 5 8 - - - - - - - 30.6 1007.6 0.2
21/02:00pm NNW 6 9 - - - - - - - 30.8 1008.1 0.2
21/01:30pm NW 2 3 - - - - - - - 30.8 1008.6 0.2
21/01:00pm N 4 6 - - - - - - - 29.9 1009.1 0.2
21/12:30pm N 8 10 - - - - - - - 29.2 1009.2 0.2
21/12:00pm N 5 6 - - - - - - - 29.9 1009.8 0.2
21/11:30am N 4 7 - - - - - - - 29.3 1010.2 0.2
21/11:00am N 6 9 - - - - - - - 28.8 1010.0 0.2
21/10:30am NNW 8 11 - - - - - - - 28.6 1010.0 0.2
21/10:00am NNW 9 13 - - - - - - - 28.6 1010.3 0.2
21/09:30am NW 10 14 - - - - - - - 28.4 1010.2 0.0
21/09:00am NNW 10 12 - - - - - - - 29.4 1010.0 0.0
21/08:30am N 8 11 - - - - - - - 29.3 1009.6 0.0
21/08:00am N 10 11 - - - - - - - 28.8 1009.1 0.0
21/07:30am N 9 12 - - - - - - - 28.6 1008.9 0.0
21/07:00am N 11 13 - - - - - - - 28.5 1008.6 0.0
21/06:30am N 11 14 - - - - - - - 28.6 1008.2 0.0
21/06:00am N 11 13 - - - - - - - 28.8 1008.1 0.0
21/05:30am N 10 13 - - - - - - - 28.8 1008.0 0.0
21/05:00am N 11 13 - - - - - - - 28.6 1007.9 0.0
21/04:30am N 9 11 - - - - - - - 28.6 1007.6 0.0
21/04:00am N 9 11 - - - - - - - 28.7 1007.4 0.0
21/03:30am N 9 10 - - - - - - - 28.7 1007.5 0.0
21/03:00am N 10 13 - - - - - - - 28.7 1007.8 0.0
21/02:30am N 10 12 - - - - - - - 28.7 1008.1 0.0
21/02:00am N 9 11 - - - - - - - 28.8 1008.8 0.0
21/01:30am N 9 10 - - - - - - - 28.9 1009.2 0.0
21/01:00am NNW 7 9 - - - - - - - 28.8 1009.8 0.0
21/12:30am NNW 8 11 - - - - - - - 28.9 1009.7 0.0
21/12:00am NNW 6 9 - - - - - - - 28.6 1009.8 0.0
 
Date/Time
CST
Wind Sea
Height
m
Swell Vis
km
Cloud Weather Temp
°C
Press
MSL
hPa
Rain since
9am
mm
Dir  Spd
kts
Gust
kts
Height
m
Period
s
Dir
20/11:30pm NNW 9 11 - - - - - - - 29.0 1010.0 0.0
20/11:00pm NNW 8 11 - - - - - - - 28.4 1009.9 0.0
20/10:30pm N 9 11 - - - - - - - 28.9 1009.5 0.0
20/10:00pm N 9 11 - - - - - - - 29.1 1009.2 0.0
20/09:30pm N 10 11 - - - - - - - 29.1 1009.2 0.0
20/09:00pm NNW 9 13 - - - - - - - 29.5 1008.6 0.0
20/08:30pm N 10 12 - - - - - - - 29.4 1008.1 0.0
20/08:00pm NW 8 12 - - - - - - - 29.6 1007.6 0.0
20/07:30pm NW 9 12 - - - - - - - 29.6 1007.8 0.0
20/07:00pm NW 9 13 - - - - - - - 29.5 1007.3 0.0
20/06:30pm WNW 11 14 - - - - - - - 29.6 1007.1 0.0
20/06:00pm WNW 11 15 - - - - - - - 30.1 1006.6 0.0
20/05:30pm NW 8 12 - - - - - - - 29.8 1006.6 0.0
20/05:00pm NW 10 13 - - - - - - - 29.9 1006.4 0.0
20/04:30pm NW 10 13 - - - - - - - 30.1 1006.4 0.0
20/04:00pm WNW 11 15 - - - - - - - 30.4 1006.5 0.0
20/03:30pm WNW 12 16 - - - - - - - 30.6 1006.4 0.0
20/03:00pm NW 9 13 - - - - - - - 31.4 1006.9 0.0
20/02:30pm WNW 10 13 - - - - - - - 31.1 1007.1 0.0
20/02:00pm NW 7 10 - - - - - - - 31.6 1007.3 0.0
20/01:30pm NW 6 9 - - - - - - - 31.3 1007.5 0.0
20/01:00pm NW 7 10 - - - - - - - 30.9 1008.0 0.0
20/12:30pm NW 7 10 - - - - - - - 30.6 1008.7 0.0
20/12:00pm NW 8 11 - - - - - - - 30.7 1009.4 0.0
20/11:30am NW 8 12 - - - - - - - 30.4 1009.7 0.0
20/11:00am NW 8 11 - - - - - - - 30.7 1010.0 0.0
20/10:30am NW 9 11 - - - - - - - 30.4 1010.0 0.0
20/10:00am NW 8 12 - - - - - - - 30.0 1009.9 0.0
20/09:30am NW 9 13 - - - - - - - 30.0 1009.7 0.0
20/09:00am NNW 10 15 - - - - - - - 29.4 1009.5 0.0
20/08:30am NW 9 12 - - - - - - - 29.5 1009.1 0.0
20/08:00am NW 9 13 - - - - - - - 29.2 1008.8 0.0
20/07:30am NW 10 15 - - - - - - - 29.0 1008.1 0.0

Other formats

Comma delimited format used in spreadsheet applications
http://www.bom.gov.au/fwo/IDD60701/IDD60701.99510.axf

JavaScript Object Notation format (JSON) in row-major order
http://www.bom.gov.au/fwo/IDD60701/IDD60701.99510.json

Data quality

Most of these data are generated automatically and are frequently updated. Quality checks on data are not normally performed. It is possible for incorrect values to appear. Refer to information at About Latest Weather Observations and please check the disclaimer before using these data.